createdAt,value
2023-03-11T00:00:44.346Z,56.84
2023-03-11T00:03:14.631Z,57.10
2023-03-11T00:05:44.713Z,56.49
2023-03-11T00:08:17.602Z,55.72
2023-03-11T00:10:46.798Z,55.52
2023-03-11T00:13:16.778Z,55.50
2023-03-11T00:15:49.463Z,55.47
2023-03-11T00:18:17.459Z,55.44
2023-03-11T00:20:46.560Z,54.77
2023-03-11T00:23:15.436Z,55.01
2023-03-11T00:25:44.877Z,55.25
2023-03-11T00:28:12.571Z,55.13
2023-03-11T00:30:41.731Z,54.99
2023-03-11T00:33:11.611Z,55.01
2023-03-11T00:35:40.584Z,55.00
2023-03-11T00:38:12.998Z,54.87
2023-03-11T00:40:40.052Z,54.96
2023-03-11T00:43:06.693Z,55.22
2023-03-11T00:45:36.496Z,55.41
2023-03-11T00:48:04.909Z,55.47
2023-03-11T00:50:35.743Z,55.33
2023-03-11T00:53:03.184Z,55.49
2023-03-11T00:55:33.908Z,55.75
2023-03-11T00:58:05.735Z,55.75
2023-03-11T01:00:40.735Z,55.89
2023-03-11T01:03:07.574Z,56.06
2023-03-11T01:05:35.063Z,56.18
2023-03-11T01:08:03.870Z,56.28
2023-03-11T01:10:32.285Z,56.54
2023-03-11T01:12:59.127Z,56.62
2023-03-11T01:15:36.048Z,56.68
2023-03-11T01:18:04.895Z,56.64
2023-03-11T01:20:33.437Z,56.51
2023-03-11T01:23:00.067Z,56.57
2023-03-11T01:25:28.656Z,56.63
2023-03-11T01:27:58.520Z,56.65
2023-03-11T01:30:27.199Z,56.63
2023-03-11T01:32:56.755Z,56.64
2023-03-11T01:35:26.328Z,56.76
2023-03-11T01:37:54.082Z,56.84
2023-03-11T01:40:29.507Z,56.80
2023-03-11T01:42:59.364Z,56.83
2023-03-11T01:45:35.538Z,56.75
2023-03-11T01:48:03.313Z,56.94
2023-03-11T01:50:38.946Z,56.90
2023-03-11T01:53:06.249Z,56.85
2023-03-11T01:55:33.945Z,56.63
2023-03-11T01:58:06.596Z,56.63
2023-03-11T02:00:35.986Z,56.43
2023-03-11T02:03:10.145Z,56.24
2023-03-11T02:05:37.644Z,55.98
2023-03-11T02:08:04.564Z,55.99
2023-03-11T02:10:32.903Z,56.16
2023-03-11T02:13:00.646Z,55.96
2023-03-11T02:15:28.130Z,56.11
2023-03-11T02:17:57.065Z,56.06
2023-03-11T02:20:41.318Z,55.73
2023-03-11T02:23:14.596Z,55.70
2023-03-11T02:26:16.210Z,55.69
2023-03-11T02:28:46.357Z,55.73
2023-03-11T02:31:14.072Z,55.84
2023-03-11T02:33:43.124Z,55.98
2023-03-11T02:36:38.572Z,56.04
2023-03-11T02:39:07.916Z,56.13
2023-03-11T02:41:44.339Z,56.03
2023-03-11T02:44:14.335Z,56.18
2023-03-11T02:46:42.920Z,56.34
2023-03-11T02:49:10.335Z,56.49
2023-03-11T02:51:36.896Z,56.38
2023-03-11T02:54:06.338Z,56.51
2023-03-11T02:56:33.229Z,56.19
2023-03-11T02:58:59.873Z,56.29
2023-03-11T03:01:28.618Z,56.06
2023-03-11T03:03:55.482Z,56.02
2023-03-11T03:06:22.235Z,56.07
2023-03-11T03:08:49.596Z,56.02
2023-03-11T03:11:16.425Z,56.02
2023-03-11T03:13:43.147Z,56.01
2023-03-11T03:16:09.749Z,56.00
2023-03-11T03:18:36.769Z,55.90
2023-03-11T03:21:04.041Z,55.91
2023-03-11T03:23:35.170Z,55.95
2023-03-11T03:26:02.423Z,55.88
2023-03-11T03:28:29.538Z,55.81
2023-03-11T03:30:56.176Z,55.69
2023-03-11T03:33:22.778Z,55.63
2023-03-11T03:35:49.431Z,55.49
2023-03-11T03:38:23.189Z,55.45
2023-03-11T03:40:50.465Z,55.57
2023-03-11T03:43:19.633Z,55.45
2023-03-11T03:45:46.373Z,55.63
2023-03-11T03:48:13.033Z,55.70
2023-03-11T03:50:42.566Z,55.69
2023-03-11T03:53:09.870Z,55.74
2023-03-11T03:55:36.452Z,55.79
2023-03-11T03:58:03.214Z,55.70
2023-03-11T04:00:32.775Z,55.79
2023-03-11T04:02:59.605Z,55.88
2023-03-11T04:05:33.884Z,55.91
2023-03-11T04:08:00.767Z,55.94
2023-03-11T04:10:28.241Z,56.03
2023-03-11T04:12:55.214Z,56.15
2023-03-11T04:15:22.084Z,56.19
2023-03-11T04:17:48.800Z,56.24
2023-03-11T04:20:15.612Z,56.31
2023-03-11T04:22:44.907Z,56.29
2023-03-11T04:25:11.564Z,56.34
2023-03-11T04:27:38.602Z,56.34
2023-03-11T04:30:06.496Z,56.52
2023-03-11T04:32:33.628Z,56.60
2023-03-11T04:35:00.440Z,56.65
2023-03-11T04:37:29.208Z,56.78
2023-03-11T04:39:56.098Z,56.91
2023-03-11T04:42:22.761Z,56.88
2023-03-11T04:44:49.530Z,56.82
2023-03-11T04:47:16.625Z,56.90
2023-03-11T04:49:43.799Z,56.99
2023-03-11T04:52:10.840Z,57.01
2023-03-11T04:54:37.763Z,57.11
2023-03-11T04:57:05.247Z,57.01
2023-03-11T04:59:32.465Z,57.06
2023-03-11T05:01:59.729Z,57.17
2023-03-11T05:04:26.363Z,57.11
2023-03-11T05:06:53.176Z,57.23
2023-03-11T05:09:20.488Z,57.20
2023-03-11T05:11:47.119Z,57.07
2023-03-11T05:14:14.500Z,57.23
2023-03-11T05:16:41.455Z,57.31
2023-03-11T05:19:28.023Z,57.42
2023-03-11T05:21:55.199Z,57.52
2023-03-11T05:24:22.873Z,57.72
2023-03-11T05:26:49.489Z,57.74
2023-03-11T05:29:16.261Z,57.80
2023-03-11T05:31:43.514Z,57.84
2023-03-11T05:34:10.474Z,57.68
2023-03-11T05:36:37.141Z,57.68
2023-03-11T05:39:04.168Z,57.67
2023-03-11T05:41:31.377Z,57.79
2023-03-11T05:43:58.175Z,57.71
2023-03-11T05:46:25.863Z,57.72
2023-03-11T05:48:52.602Z,57.92
2023-03-11T05:51:19.326Z,57.70
2023-03-11T05:53:48.742Z,57.28
2023-03-11T05:56:21.594Z,56.85
2023-03-11T05:58:48.963Z,56.63
2023-03-11T06:01:18.766Z,56.44
2023-03-11T06:03:45.623Z,56.05
2023-03-11T06:06:14.384Z,55.45
2023-03-11T06:08:46.172Z,55.40
2023-03-11T06:11:13.085Z,55.35
2023-03-11T06:13:40.306Z,55.19
2023-03-11T06:16:10.104Z,55.30
2023-03-11T06:18:37.043Z,54.93
2023-03-11T06:21:04.719Z,54.64
2023-03-11T06:23:32.186Z,54.49
2023-03-11T06:26:05.870Z,54.31
2023-03-11T06:28:36.859Z,54.14
2023-03-11T06:31:12.860Z,53.89
2023-03-11T06:33:39.500Z,52.81
2023-03-11T06:36:07.406Z,52.26
2023-03-11T06:38:37.274Z,51.72
2023-03-11T06:41:06.522Z,51.56
2023-03-11T06:43:35.540Z,51.92
2023-03-11T06:46:10.338Z,52.16
2023-03-11T06:48:38.023Z,52.10
2023-03-11T06:51:06.016Z,51.56
2023-03-11T06:53:33.540Z,51.64
2023-03-11T06:56:07.998Z,51.41
2023-03-11T06:58:41.885Z,51.75
2023-03-11T07:01:14.641Z,51.35
2023-03-11T07:03:42.113Z,51.18
2023-03-11T07:06:18.312Z,51.34
2023-03-11T07:08:51.146Z,51.81
2023-03-11T07:11:27.369Z,52.18
2023-03-11T07:13:58.718Z,52.47
2023-03-11T07:16:29.816Z,52.79
2023-03-11T07:19:03.444Z,52.85
2023-03-11T07:21:32.377Z,53.15
2023-03-11T07:24:02.268Z,53.47
2023-03-11T07:26:30.713Z,53.53
2023-03-11T07:28:58.548Z,53.52
2023-03-11T07:31:33.296Z,53.46
2023-03-11T07:34:05.773Z,53.57
2023-03-11T07:36:32.593Z,53.64
2023-03-11T07:39:04.653Z,53.95
2023-03-11T07:41:34.348Z,54.30
2023-03-11T07:44:02.918Z,54.41
2023-03-11T07:46:31.211Z,54.29
2023-03-11T07:48:57.869Z,54.07
2023-03-11T07:51:29.116Z,53.93
2023-03-11T07:53:58.621Z,53.68
2023-03-11T07:56:29.982Z,53.52
2023-03-11T07:58:59.417Z,53.43
2023-03-11T08:01:36.440Z,53.65
2023-03-11T08:04:06.058Z,53.73
2023-03-11T08:06:34.685Z,53.46
2023-03-11T08:09:04.853Z,53.15
2023-03-11T08:11:31.947Z,52.27
2023-03-11T08:13:59.710Z,52.14
2023-03-11T08:16:26.914Z,51.69
2023-03-11T08:18:54.422Z,51.54
2023-03-11T08:21:29.215Z,51.44
2023-03-11T08:24:01.395Z,51.70
2023-03-11T08:26:29.457Z,51.55
2023-03-11T08:28:58.876Z,51.32
2023-03-11T08:31:30.148Z,51.21
2023-03-11T08:34:03.757Z,50.63
2023-03-11T08:36:31.938Z,50.33
2023-03-11T08:38:59.352Z,50.10
2023-03-11T08:41:26.683Z,49.73
2023-03-11T08:43:53.893Z,48.24
2023-03-11T08:46:36.610Z,48.68
2023-03-11T08:49:04.656Z,48.67
2023-03-11T08:51:34.069Z,48.38
2023-03-11T08:54:02.145Z,47.49
2023-03-11T08:56:29.060Z,47.48
2023-03-11T08:58:55.704Z,46.88
2023-03-11T09:01:23.912Z,44.52
2023-03-11T09:03:50.697Z,44.03
2023-03-11T09:06:18.138Z,45.67
2023-03-11T09:08:46.488Z,44.08
2023-03-11T09:11:13.872Z,42.92
2023-03-11T09:13:43.331Z,42.69
2023-03-11T09:16:18.143Z,41.60
2023-03-11T09:18:45.258Z,39.74
2023-03-11T09:21:12.235Z,40.35
2023-03-11T09:23:40.709Z,40.32
2023-03-11T09:26:08.781Z,36.65
2023-03-11T09:28:35.371Z,35.79
2023-03-11T09:31:01.998Z,36.42
2023-03-11T09:33:28.749Z,35.50
2023-03-11T09:35:55.428Z,34.02
2023-03-11T09:38:22.139Z,33.08
2023-03-11T09:40:56.645Z,29.10
2023-03-11T09:43:39.155Z,28.57
2023-03-11T09:47:05.089Z,28.95
2023-03-11T09:50:00.835Z,26.79
2023-03-11T09:52:33.269Z,29.14
2023-03-11T09:55:03.989Z,25.21
2023-03-11T09:57:36.946Z,26.24
2023-03-11T10:00:07.157Z,26.82
2023-03-11T10:02:40.658Z,25.49
2023-03-11T10:05:20.738Z,24.65
2023-03-11T10:07:59.343Z,24.55
2023-03-11T10:10:31.653Z,25.20
2023-03-11T10:13:19.121Z,23.90
2023-03-11T10:16:27.715Z,25.04
2023-03-11T10:19:29.051Z,23.77
2023-03-11T10:22:45.687Z,24.41
2023-03-11T10:25:25.949Z,24.74
2023-03-11T10:28:03.769Z,24.77
2023-03-11T10:30:58.468Z,24.67
2023-03-11T10:33:36.729Z,25.55
2023-03-11T10:36:11.688Z,24.93
2023-03-11T10:38:49.275Z,23.90
2023-03-11T10:41:44.340Z,24.04
2023-03-11T10:44:39.499Z,24.29
2023-03-11T10:47:12.916Z,25.82
2023-03-11T10:49:39.496Z,26.75
2023-03-11T10:52:06.603Z,27.13
2023-03-11T10:54:46.442Z,27.25
2023-03-11T10:57:25.631Z,27.89
2023-03-11T10:59:56.259Z,28.81
2023-03-11T11:02:43.817Z,28.41
2023-03-11T11:05:22.738Z,28.07
2023-03-11T11:08:02.965Z,29.50
2023-03-11T11:10:30.824Z,30.90
2023-03-11T11:13:12.960Z,31.74
2023-03-11T11:15:51.166Z,31.15
2023-03-11T11:18:32.468Z,32.13
2023-03-11T11:21:09.107Z,32.67
2023-03-11T11:23:47.848Z,32.76
2023-03-11T11:26:26.244Z,32.94
2023-03-11T11:29:15.521Z,33.17
2023-03-11T11:31:45.493Z,32.97
2023-03-11T11:34:35.169Z,32.61
2023-03-11T11:37:05.760Z,32.92
2023-03-11T11:39:45.823Z,32.95
2023-03-11T11:42:15.013Z,32.73
2023-03-11T11:44:47.260Z,33.07
2023-03-11T11:47:28.569Z,33.39
2023-03-11T11:50:00.620Z,34.00
2023-03-11T11:52:40.746Z,34.18
2023-03-11T11:55:21.112Z,34.10
2023-03-11T11:57:48.788Z,34.11
2023-03-11T12:00:45.348Z,33.56
2023-03-11T12:03:48.652Z,33.85
2023-03-11T12:06:46.379Z,33.99
2023-03-11T12:09:43.105Z,33.39
2023-03-11T12:12:54.002Z,33.28
2023-03-11T12:15:34.370Z,33.42
2023-03-11T12:18:08.862Z,33.21
2023-03-11T12:20:49.773Z,33.51
2023-03-11T12:23:23.973Z,33.44
2023-03-11T12:26:15.013Z,33.70
2023-03-11T12:28:56.916Z,33.24
2023-03-11T12:31:27.697Z,33.52
2023-03-11T12:34:07.261Z,33.76
2023-03-11T12:36:41.574Z,34.40
2023-03-11T12:39:29.867Z,34.61
2023-03-11T12:42:21.573Z,34.63
2023-03-11T12:44:50.259Z,34.55
2023-03-11T12:47:28.910Z,34.81
2023-03-11T12:50:35.262Z,34.52
2023-03-11T12:53:01.800Z,34.98
2023-03-11T12:55:34.748Z,35.16
2023-03-11T12:58:23.875Z,35.00
2023-03-11T13:01:14.189Z,34.22
2023-03-11T13:04:15.758Z,34.49
2023-03-11T13:07:08.700Z,34.89
2023-03-11T13:09:35.344Z,34.32
2023-03-11T13:12:02.394Z,34.06
2023-03-11T13:14:35.940Z,34.41
2023-03-11T13:17:26.827Z,33.99
2023-03-11T13:19:58.394Z,33.93
2023-03-11T13:22:54.006Z,33.88
2023-03-11T13:25:37.801Z,34.11
2023-03-11T13:28:42.040Z,34.23
2023-03-11T13:31:56.011Z,33.79
2023-03-11T13:35:00.865Z,34.47
2023-03-11T13:37:44.416Z,34.56
2023-03-11T13:40:40.672Z,34.87
2023-03-11T13:43:25.415Z,34.94
2023-03-11T13:46:02.554Z,34.42
2023-03-11T13:48:40.575Z,34.30
2023-03-11T13:51:25.697Z,34.81
2023-03-11T13:54:00.445Z,34.10
2023-03-11T13:56:31.856Z,33.78
2023-03-11T13:59:24.713Z,33.64
2023-03-11T14:02:01.110Z,33.73
2023-03-11T14:04:35.340Z,33.79
2023-03-11T14:07:27.694Z,34.18
2023-03-11T14:10:25.485Z,34.46
2023-03-11T14:13:05.438Z,34.15
2023-03-11T14:15:45.712Z,33.98
2023-03-11T14:18:34.475Z,34.14
2023-03-11T14:21:02.877Z,34.53
2023-03-11T14:23:43.560Z,34.68
2023-03-11T14:26:19.493Z,34.63
2023-03-11T14:28:51.246Z,34.47
2023-03-11T14:31:34.236Z,34.39
2023-03-11T14:34:11.101Z,34.71
2023-03-11T14:36:44.296Z,34.21
2023-03-11T14:39:33.860Z,33.66
2023-03-11T14:42:26.757Z,33.88
2023-03-11T14:45:15.432Z,34.25
2023-03-11T14:47:46.164Z,34.37
2023-03-11T14:50:21.151Z,34.47
2023-03-11T14:53:07.498Z,34.98
2023-03-11T14:55:44.233Z,35.48
2023-03-11T14:58:26.076Z,35.81
2023-03-11T15:01:13.457Z,36.02
2023-03-11T15:03:52.518Z,36.13
2023-03-11T15:06:30.130Z,36.15
2023-03-11T15:09:06.702Z,36.13
2023-03-11T15:11:59.309Z,36.19
2023-03-11T15:14:37.235Z,36.08
2023-03-11T15:17:33.988Z,36.13
2023-03-11T15:20:07.516Z,36.15
2023-03-11T15:22:41.151Z,36.51
2023-03-11T15:25:19.398Z,36.79
2023-03-11T15:27:46.737Z,37.04
2023-03-11T15:30:26.046Z,37.25
2023-03-11T15:32:53.379Z,37.23
2023-03-11T15:35:24.522Z,37.28
2023-03-11T15:38:20.812Z,37.85
2023-03-11T15:41:03.920Z,39.00
2023-03-11T15:43:43.833Z,39.39
2023-03-11T15:46:11.107Z,39.60
2023-03-11T15:48:37.810Z,40.01
2023-03-11T15:51:04.650Z,40.22
2023-03-11T15:53:31.548Z,40.42
2023-03-11T15:56:12.185Z,40.73
2023-03-11T15:58:38.910Z,40.79
2023-03-11T16:01:05.710Z,40.73
2023-03-11T16:03:32.547Z,40.77
2023-03-11T16:05:59.177Z,40.21
2023-03-11T16:08:25.821Z,40.27
2023-03-11T16:10:52.453Z,40.31
2023-03-11T16:13:19.185Z,40.50
2023-03-11T16:15:47.085Z,40.63
2023-03-11T16:18:13.840Z,40.64
2023-03-11T16:20:52.452Z,40.70
2023-03-11T16:23:27.610Z,40.87
2023-03-11T16:26:00.000Z,41.06
2023-03-11T16:28:27.116Z,41.11
2023-03-11T16:30:53.969Z,41.27
2023-03-11T16:33:20.650Z,41.46
2023-03-11T16:35:47.497Z,41.53
2023-03-11T16:38:14.409Z,42.17
2023-03-11T16:40:41.062Z,42.23
2023-03-11T16:43:12.629Z,42.13
2023-03-11T16:45:39.713Z,42.32
2023-03-11T16:48:07.201Z,42.29
2023-03-11T16:50:36.874Z,42.43
2023-03-11T16:53:05.033Z,42.26
2023-03-11T16:55:31.844Z,42.24
2023-03-11T16:57:58.717Z,42.38
2023-03-11T17:00:25.531Z,42.46
2023-03-11T17:02:52.454Z,42.60
2023-03-11T17:05:19.388Z,42.68
2023-03-11T17:07:46.141Z,42.92
2023-03-11T17:10:13.126Z,43.20
2023-03-11T17:12:39.809Z,43.40
2023-03-11T17:15:08.516Z,43.70
2023-03-11T17:17:35.749Z,43.88
2023-03-11T17:20:02.734Z,43.76
2023-03-11T17:22:29.269Z,43.95
2023-03-11T17:24:55.932Z,43.85
2023-03-11T17:27:22.524Z,43.54
2023-03-11T17:29:50.375Z,43.79
2023-03-11T17:32:17.644Z,43.94
2023-03-11T17:34:44.434Z,43.92
2023-03-11T17:37:11.040Z,44.09
2023-03-11T17:39:37.645Z,44.27
2023-03-11T17:42:04.503Z,44.39
2023-03-11T17:44:44.623Z,44.69
2023-03-11T17:47:19.842Z,44.78
2023-03-11T17:49:48.407Z,44.83
2023-03-11T17:52:14.974Z,44.57
2023-03-11T17:54:41.571Z,44.87
2023-03-11T17:57:08.394Z,44.76
2023-03-11T17:59:35.112Z,44.73
2023-03-11T18:02:02.094Z,44.94
2023-03-11T18:04:28.942Z,45.08
2023-03-11T18:06:56.225Z,45.03
2023-03-11T18:09:22.958Z,45.19
2023-03-11T18:11:49.845Z,45.12
2023-03-11T18:14:16.900Z,45.26
2023-03-11T18:16:43.587Z,45.24
2023-03-11T18:19:10.371Z,45.54
2023-03-11T18:21:37.051Z,45.26
2023-03-11T18:24:03.831Z,45.27
2023-03-11T18:26:31.310Z,44.97
2023-03-11T18:28:59.913Z,44.88
2023-03-11T18:31:28.827Z,44.94
2023-03-11T18:33:59.605Z,44.88
2023-03-11T18:36:38.052Z,44.65
2023-03-11T18:39:05.359Z,44.47
2023-03-11T18:41:35.368Z,44.44
2023-03-11T18:44:02.478Z,44.53
2023-03-11T18:46:31.982Z,44.70
2023-03-11T18:49:02.016Z,44.57
2023-03-11T18:51:31.988Z,44.55
2023-03-11T18:54:00.124Z,44.46
2023-03-11T18:56:27.078Z,44.53
2023-03-11T18:58:55.458Z,44.63
2023-03-11T19:01:22.339Z,44.83
2023-03-11T19:03:55.710Z,44.81
2023-03-11T19:06:25.519Z,44.96
2023-03-11T19:08:53.199Z,45.08
2023-03-11T19:11:22.967Z,45.34
2023-03-11T19:13:50.088Z,45.28
2023-03-11T19:16:21.090Z,45.50
2023-03-11T19:18:47.979Z,45.55
2023-03-11T19:21:16.300Z,45.41
2023-03-11T19:23:44.148Z,45.53
2023-03-11T19:26:10.777Z,45.28
2023-03-11T19:28:37.702Z,45.34
2023-03-11T19:31:05.803Z,45.37
2023-03-11T19:33:32.752Z,45.22
2023-03-11T19:36:05.993Z,45.16
2023-03-11T19:38:33.381Z,45.31
2023-03-11T19:41:08.077Z,45.59
2023-03-11T19:43:35.829Z,45.67
2023-03-11T19:46:08.201Z,45.67
2023-03-11T19:48:35.116Z,45.58
2023-03-11T19:51:02.638Z,45.67
2023-03-11T19:53:29.743Z,46.02
2023-03-11T19:55:57.291Z,46.14
2023-03-11T19:58:29.949Z,46.15
2023-03-11T20:00:58.218Z,46.03
2023-03-11T20:03:26.147Z,46.07
2023-03-11T20:05:56.544Z,45.91
2023-03-11T20:08:25.531Z,45.89
2023-03-11T20:10:53.862Z,45.97
2023-03-11T20:13:22.185Z,46.02
2023-03-11T20:15:49.756Z,46.30
2023-03-11T20:18:17.897Z,46.38
2023-03-11T20:20:45.751Z,46.33
2023-03-11T20:23:13.186Z,46.36
2023-03-11T20:25:41.423Z,46.28
2023-03-11T20:28:10.237Z,46.23
2023-03-11T20:30:39.427Z,46.50
2023-03-11T20:33:07.799Z,46.54
2023-03-11T20:35:35.396Z,46.60
2023-03-11T20:38:03.220Z,46.59
2023-03-11T20:40:30.033Z,46.49
2023-03-11T20:42:56.674Z,46.38
2023-03-11T20:45:23.464Z,46.42
2023-03-11T20:47:53.843Z,46.60
2023-03-11T20:50:22.356Z,46.81
2023-03-11T20:52:50.873Z,46.94
2023-03-11T20:55:18.087Z,47.07
2023-03-11T20:57:44.699Z,47.27
2023-03-11T21:00:13.244Z,47.48
2023-03-11T21:02:42.845Z,48.07
2023-03-11T21:05:11.356Z,48.05
2023-03-11T21:07:38.279Z,47.91
2023-03-11T21:10:09.329Z,47.91
2023-03-11T21:12:36.048Z,47.85
2023-03-11T21:15:03.945Z,47.82
2023-03-11T21:17:31.010Z,47.90
2023-03-11T21:19:57.686Z,47.98
2023-03-11T21:22:24.516Z,47.92
2023-03-11T21:24:53.048Z,47.94
2023-03-11T21:27:25.833Z,47.95
2023-03-11T21:29:57.245Z,47.74
2023-03-11T21:32:25.814Z,47.69
2023-03-11T21:35:00.944Z,47.72
2023-03-11T21:37:28.624Z,47.79
2023-03-11T21:39:55.646Z,47.80
2023-03-11T21:42:22.457Z,47.81
2023-03-11T21:44:51.316Z,47.82
2023-03-11T21:47:18.481Z,47.96
2023-03-11T21:49:45.257Z,47.90
2023-03-11T21:52:11.908Z,47.93
2023-03-11T21:54:38.778Z,47.96
2023-03-11T21:57:05.540Z,48.01
2023-03-11T21:59:32.302Z,47.97
2023-03-11T22:02:02.936Z,47.75
2023-03-11T22:04:31.561Z,47.85
2023-03-11T22:06:59.806Z,47.94
2023-03-11T22:09:27.230Z,47.93
2023-03-11T22:11:56.748Z,47.90
2023-03-11T22:14:24.682Z,48.02
2023-03-11T22:16:52.169Z,47.81
2023-03-11T22:19:19.243Z,47.91
2023-03-11T22:21:46.063Z,47.80
2023-03-11T22:24:12.794Z,47.78
2023-03-11T22:26:39.451Z,47.76
2023-03-11T22:29:08.561Z,47.63
2023-03-11T22:31:35.920Z,47.70
2023-03-11T22:34:02.686Z,47.70
2023-03-11T22:36:29.314Z,47.93
2023-03-11T22:38:56.931Z,48.01
2023-03-11T22:41:23.579Z,47.94
2023-03-11T22:43:50.232Z,48.00
2023-03-11T22:46:16.864Z,47.99
2023-03-11T22:48:43.560Z,48.03
2023-03-11T22:51:10.312Z,48.20
2023-03-11T22:53:37.018Z,48.30
2023-03-11T22:56:13.245Z,48.42
2023-03-11T22:58:40.056Z,48.47
2023-03-11T23:01:07.246Z,48.39
2023-03-11T23:03:35.503Z,48.15
2023-03-11T23:06:06.343Z,48.00
2023-03-11T23:08:33.234Z,48.06
2023-03-11T23:11:05.834Z,48.40
2023-03-11T23:13:35.972Z,48.61
2023-03-11T23:16:10.344Z,48.40
2023-03-11T23:18:37.808Z,48.42
2023-03-11T23:21:04.877Z,48.49
2023-03-11T23:23:31.534Z,48.54
2023-03-11T23:25:58.297Z,48.51
2023-03-11T23:28:24.879Z,48.63
2023-03-11T23:30:51.570Z,48.58
2023-03-11T23:33:18.229Z,48.54
2023-03-11T23:35:44.915Z,48.51
2023-03-11T23:38:11.576Z,48.72
2023-03-11T23:40:41.551Z,49.01
2023-03-11T23:43:08.166Z,49.29
2023-03-11T23:45:34.810Z,49.57
2023-03-11T23:48:01.548Z,49.92
2023-03-11T23:50:28.268Z,49.88
2023-03-11T23:52:54.936Z,49.98
2023-03-11T23:55:21.475Z,49.95
2023-03-11T23:57:48.084Z,49.98
